Island Queen — WDE6981 — position and weather

sailwx.info

Track history (hours):
 
Tides and Currents Weather Stations Pressure Air Temp Water Temp Dewpoint Dewpoint Depression Visibility Wind Speed Wind Dir Waves Ship Positions

Island Queen

Owner: Island Queen Sightseeing Tours Inc., Miami, FL. More information available from US FCC via Universal Licensing System and Coast Guard Vessel Documentation Center.

Last reported at 2017-Oct-20 00:49 UTC. Time now 2017-Oct-20 03:25 UTC.
Position N 25°47' W 080°11'.

Type: Passenger vessel. MMSI: 367387350.

Date/timePositionNaut miles runAvg speedWind from/ knotsBaromVisibWave heightAir tempDewpointWater temp
2017-Oct-20 00:49N 25°47' W 080°11'1 3.5
2017-Oct-20 00:30N 25°46' W 080°10'1 1.8
2017-Oct-20 00:00N 25°47' W 080°09'2 2.5
2017-Oct-19 23:17N 25°47' W 080°11'2 5.4
2017-Oct-19 22:58N 25°46' W 080°09'1 2.2
2017-Oct-19 22:27N 25°47' W 080°09'2 2.5
2017-Oct-19 21:50N 25°47' W 080°11'2 5.9
2017-Oct-19 21:30N 25°46' W 080°09'1 2.4
2017-Oct-19 21:00N 25°47' W 080°09'2 1.7
2017-Oct-19 20:05N 25°47' W 080°11'0 2.3
2017-Oct-19 19:54N 25°46' W 080°11'2 3.6
2017-Oct-19 19:25N 25°47' W 080°09'2 3.6
2017-Oct-19 18:55N 25°47' W 080°11'1 1.3
2017-Oct-19 18:26N 25°47' W 080°11'0 0.0
2017-Oct-19 18:00N 25°47' W 080°11'2 4.2
2017-Oct-19 17:30N 25°46' W 080°09'1 2.0
2017-Oct-19 17:00N 25°47' W 080°09'2 2.6
2017-Oct-19 16:25N 25°47' W 080°11'0 0.4
2017-Oct-19 16:00N 25°47' W 080°11'2 3.8
2017-Oct-19 15:30N 25°47' W 080°09'1 2.3
2017-Oct-19 15:00N 25°47' W 080°10'1 2.2
2017-Oct-19 14:26N 25°47' W 080°11'0 0.0
2017-Oct-19 13:59N 25°47' W 080°11'0 0.0
2017-Oct-19 13:26N 25°47' W 080°11'0 0.0
2017-Oct-19 12:56N 25°47' W 080°11'0 0.0
2017-Oct-19 12:20N 25°47' W 080°11'0 0.0
2017-Oct-19 11:59N 25°47' W 080°11'0 0.0
2017-Oct-19 11:29N 25°47' W 080°11'0 0.0
2017-Oct-19 10:59N 25°47' W 080°11'0 0.0
2017-Oct-19 10:26N 25°47' W 080°11'0 0.0
2017-Oct-19 09:56N 25°47' W 080°11'0 0.0
2017-Oct-19 09:23N 25°47' W 080°11'0 0.0
2017-Oct-19 08:56N 25°47' W 080°11'0 0.0
2017-Oct-19 08:20N 25°47' W 080°11'0 0.0
2017-Oct-19 07:59N 25°47' W 080°11'0 0.0
2017-Oct-19 07:26N 25°47' W 080°11'0 0.0
2017-Oct-19 06:59N 25°47' W 080°11'0 0.0
2017-Oct-19 06:23N 25°47' W 080°11'0 0.0
2017-Oct-19 05:59N 25°47' W 080°11'0 0.0
2017-Oct-19 05:20N 25°47' W 080°11'0 0.0
2017-Oct-19 04:59N 25°47' W 080°11'0 0.0
2017-Oct-19 04:23N 25°47' W 080°11'0 0.0
2017-Oct-19 03:47N 25°47' W 080°11'0 0.0
2017-Oct-19 03:23N 25°47' W 080°11'0 0.0
2017-Oct-19 02:59N 25°47' W 080°11'0 0.0
2017-Oct-19 02:23N 25°47' W 080°11'0 0.0
2017-Oct-19 01:56N 25°47' W 080°11'0 0.0
2017-Oct-19 01:26N 25°47' W 080°11'0 0.0
2017-Oct-19 00:59N 25°47' W 080°11'1 1.7
2017-Oct-19 00:30N 25°47' W 080°11'2 4.0
2017-Oct-19 00:00N 25°46' W 080°09'2 3.8
2017-Oct-18 23:24N 25°47' W 080°11'1 2.6
2017-Oct-18 22:59N 25°46' W 080°10'1 1.8
2017-Oct-18 22:29N 25°47' W 080°09'2 2.6
2017-Oct-18 21:50N 25°47' W 080°11'0 0.5
2017-Oct-18 21:30N 25°47' W 080°11'2 3.8
2017-Oct-18 21:00N 25°47' W 080°09'1 2.5
2017-Oct-18 20:30N 25°47' W 080°10'1 2.1
2017-Oct-18 19:56N 25°47' W 080°11'0 0.0
2017-Oct-18 19:30N 25°47' W 080°11'3 4.7
2017-Oct-18 18:58N 25°46' W 080°08'1 2.8
2017-Oct-18 18:30N 25°47' W 080°09'2 2.9
2017-Oct-18 17:56N 25°47' W 080°11'0 0.0
2017-Oct-18 17:29N 25°47' W 080°11'2 4.9
2017-Oct-18 17:00N 25°46' W 080°09'1 2.6
2017-Oct-18 16:30N 25°47' W 080°09'2 3.2
2017-Oct-18 15:58N 25°47' W 080°11'2 4.0
2017-Oct-18 15:30N 25°46' W 080°09'1 1.8
2017-Oct-18 15:00N 25°47' W 080°10'1 1.3
2017-Oct-18 13:53N 25°47' W 080°11'0 0.0
2017-Oct-18 13:17N 25°47' W 080°11'0 0.0
2017-Oct-18 12:59N 25°47' W 080°11'0 0.0
2017-Oct-18 12:26N 25°47' W 080°11'0 0.0
2017-Oct-18 11:59N 25°47' W 080°11'0 0.0
2017-Oct-18 11:29N 25°47' W 080°11'0 0.0
2017-Oct-18 11:00N 25°47' W 080°11'0 0.0
2017-Oct-18 10:30N 25°47' W 080°11'0 0.0
2017-Oct-18 09:59N 25°47' W 080°11'0 0.0
2017-Oct-18 09:27N 25°47' W 080°11'0 0.0
2017-Oct-18 09:00N 25°47' W 080°11'0 0.0
2017-Oct-18 08:30N 25°47' W 080°11'0 0.0
2017-Oct-18 07:57N 25°47' W 080°11'0 0.0
2017-Oct-18 07:30N 25°47' W 080°11'0 0.0
2017-Oct-18 07:00N 25°47' W 080°11'0 0.0
2017-Oct-18 06:30N 25°47' W 080°11'0 0.0
2017-Oct-18 06:00N 25°47' W 080°11'0 0.0
2017-Oct-18 05:30N 25°47' W 080°11'0 0.0
2017-Oct-18 05:00N 25°47' W 080°11'0 0.0
2017-Oct-18 04:30N 25°47' W 080°11'0 0.0
2017-Oct-18 03:57N 25°47' W 080°11'0 0.0
2017-Oct-18 03:30N 25°47' W 080°11'0 0.0
2017-Oct-18 02:54N 25°47' W 080°11'0 0.0
2017-Oct-18 02:28N 25°47' W 080°11'0 0.0
2017-Oct-18 02:00N 25°47' W 080°11'0 0.0
2017-Oct-18 01:30N 25°47' W 080°11'0 0.0
2017-Oct-18 01:00N 25°47' W 080°11'1 1.2
2017-Oct-18 00:30N 25°46' W 080°11'1 2.7
2017-Oct-18 00:00N 25°47' W 080°09'2 3.3
2017-Oct-17 23:28N 25°47' W 080°11'1 1.5
2017-Oct-17 23:00N 25°46' W 080°11'1 2.6
2017-Oct-17 22:30N 25°47' W 080°09'2 3.5
2017-Oct-17 22:00N 25°47' W 080°11'0 0.0
2017-Oct-17 21:30N 25°47' W 080°11'2 4.9
2017-Oct-17 21:00N 25°46' W 080°09'1 2.3
2017-Oct-17 20:30N 25°47' W 080°09'2 3.0
2017-Oct-17 19:59N 25°47' W 080°11'0 0.0
2017-Oct-17 19:29N 25°47' W 080°11'2 4.3
2017-Oct-17 19:00N 25°46' W 080°09'1 2.1
2017-Oct-17 18:30N 25°47' W 080°10'1 2.9
2017-Oct-17 18:00N 25°47' W 080°11'0 0.0
2017-Oct-17 17:30N 25°47' W 080°11'2 4.6
2017-Oct-17 17:00N 25°46' W 080°09'1 2.9
2017-Oct-17 16:30N 25°47' W 080°10'1 2.6
2017-Oct-17 16:00N 25°47' W 080°11'2 4.6
2017-Oct-17 15:30N 25°46' W 080°09'1 2.7
2017-Oct-17 15:00N 25°47' W 080°09'2 2.6
2017-Oct-17 14:23N 25°47' W 080°11'0 0.0
2017-Oct-17 13:47N 25°47' W 080°11'0 0.0
2017-Oct-17 13:29N 25°47' W 080°11'0 0.0
2017-Oct-17 12:59N 25°47' W 080°11'0 0.3
2017-Oct-17 12:30N 25°47' W 080°11'0 0.3
2017-Oct-17 11:58N 25°47' W 080°11'0 0.0
2017-Oct-17 11:25N 25°47' W 080°11'0 0.0
2017-Oct-17 10:58N 25°47' W 080°11'0 0.0
2017-Oct-17 10:28N 25°47' W 080°11'0 0.0
2017-Oct-17 10:00N 25°47' W 080°11'0 0.0
2017-Oct-17 09:29N 25°47' W 080°11'0 0.0
2017-Oct-17 08:56N 25°47' W 080°11'0 0.0
2017-Oct-17 08:29N 25°47' W 080°11'0 0.0
2017-Oct-17 07:59N 25°47' W 080°11'0 0.0
2017-Oct-17 07:26N 25°47' W 080°11'0 0.0
2017-Oct-17 06:56N 25°47' W 080°11'0 0.0
2017-Oct-17 06:20N 25°47' W 080°11'0 0.0
2017-Oct-17 05:56N 25°47' W 080°11'0 0.0
2017-Oct-17 05:29N 25°47' W 080°11'0 0.0
2017-Oct-17 04:56N 25°47' W 080°11'0 0.0
2017-Oct-17 04:29N 25°47' W 080°11'0 0.0
2017-Oct-17 03:53N 25°47' W 080°11'0 0.0
2017-Oct-17 03:14N 25°47' W 080°11'0 0.0
2017-Oct-17 02:59N 25°47' W 080°11'0 0.0
2017-Oct-17 02:29N 25°47' W 080°11'0 0.0
2017-Oct-17 01:59N 25°47' W 080°11'0 0.0
2017-Oct-17 01:26N 25°47' W 080°11'0 0.0
2017-Oct-17 00:53N 25°47' W 080°11'0 0.0
2017-Oct-17 00:29N 25°47' W 080°11'0 0.0
2017-Oct-16 23:50N 25°47' W 080°11'0 0.0
2017-Oct-16 23:29N 25°47' W 080°11'2 3.4
2017-Oct-16 23:00N 25°47' W 080°09'1 1.9
2017-Oct-16 22:30N 25°46' W 080°09'2 4.1
2017-Oct-16 21:59N 25°47' W 080°11'0 0.0
2017-Oct-16 21:30N 25°47' W 080°11'2 4.8
2017-Oct-16 21:00N 25°46' W 080°09'1 2.2
2017-Oct-16 20:30N 25°47' W 080°09'2 2.9
2017-Oct-16 19:59N 25°47' W 080°11'0 0.0
2017-Oct-16 19:30N 25°47' W 080°11'2 4.9
2017-Oct-16 19:00N 25°46' W 080°09'1 2.3
2017-Oct-16 18:30N 25°47' W 080°09'2 3.4
2017-Oct-16 18:00N 25°47' W 080°11'0 0.0
2017-Oct-16 17:30N 25°47' W 080°11'2 4.8
2017-Oct-16 17:00N 25°46' W 080°09'1 2.4
2017-Oct-16 16:30N 25°47' W 080°09'2 3.3
2017-Oct-16 15:59N 25°47' W 080°11'0 0.0
2017-Oct-16 15:29N 25°47' W 080°11'0 0.0
2017-Oct-16 14:59N 25°47' W 080°11'0 0.0
2017-Oct-16 14:00N 25°47' W 080°11'0 0.0
2017-Oct-16 13:29N 25°47' W 080°11'0 0.0
2017-Oct-16 13:00N 25°47' W 080°11'0 0.0
2017-Oct-16 12:30N 25°47' W 080°11'0 0.0
2017-Oct-16 12:00N 25°47' W 080°11'0 0.0
2017-Oct-16 11:27N 25°47' W 080°11'0 0.0
2017-Oct-16 11:00N 25°47' W 080°11'0 0.0
2017-Oct-16 10:29N 25°47' W 080°11'0 0.0
2017-Oct-16 09:51N 25°47' W 080°11'0 0.0
2017-Oct-16 09:23N 25°47' W 080°11'0 0.0
2017-Oct-16 08:59N 25°47' W 080°11'0 0.0
2017-Oct-16 08:29N 25°47' W 080°11'0 0.0
2017-Oct-16 07:59N 25°47' W 080°11'0 0.0
2017-Oct-16 07:29N 25°47' W 080°11'0 0.0
2017-Oct-16 07:00N 25°47' W 080°11'0 0.0
2017-Oct-16 06:28N 25°47' W 080°11'0 0.0
2017-Oct-16 05:58N 25°47' W 080°11'0 0.0
2017-Oct-16 05:26N 25°47' W 080°11'0 0.0
2017-Oct-16 04:58N 25°47' W 080°11'0 0.0
2017-Oct-16 04:28N 25°47' W 080°11'0 0.0
2017-Oct-16 03:56N 25°47' W 080°11'0 0.0
2017-Oct-16 03:22N 25°47' W 080°11'0 0.0
2017-Oct-16 02:56N 25°47' W 080°11'0 0.0
2017-Oct-16 02:30N 25°47' W 080°11'1 2.2
2017-Oct-16 02:00N 25°47' W 080°10'1 1.3
2017-Oct-16 01:30N 25°46' W 080°11'1 1.2
2017-Oct-16 01:00N 25°47' W 080°11'0 0.0
2017-Oct-16 00:30N 25°47' W 080°11'2 3.5
2017-Oct-16 00:00N 25°47' W 080°09'1 1.5
2017-Oct-15 23:30N 25°46' W 080°10'1 2.7
2017-Oct-15 22:58N 25°47' W 080°11'0 0.7
2017-Oct-15 22:30N 25°47' W 080°11'1 2.9
2017-Oct-15 22:00N 25°47' W 080°09'1 1.6
2017-Oct-15 21:30N 25°46' W 080°10'2 3.3
2017-Oct-15 21:00N 25°47' W 080°11'0 0.0
2017-Oct-15 20:30N 25°47' W 080°11'2 4.6
2017-Oct-15 20:00N 25°46' W 080°09'1 1.8
2017-Oct-15 19:30N 25°47' W 080°09'2 3.0
2017-Oct-15 18:59N 25°47' W 080°11'0 0.0
2017-Oct-15 18:30N 25°47' W 080°11'1 3.0
2017-Oct-15 18:00N 25°47' W 080°10'1 2.0
2017-Oct-15 17:30N 25°46' W 080°09'2 3.9
2017-Oct-15 17:00N 25°47' W 080°11'0 0.0
2017-Oct-15 16:30N 25°47' W 080°11'2 4.4
2017-Oct-15 16:00N 25°46' W 080°09'1 1.9
2017-Oct-15 15:30N 25°47' W 080°09'2 3.0
2017-Oct-15 14:58N 25°47' W 080°11'0 0.0
2017-Oct-15 13:57N 25°47' W 080°11'0 0.0
2017-Oct-15 13:28N 25°47' W 080°11'0 0.0
2017-Oct-15 12:58N 25°47' W 080°11'0 0.0
2017-Oct-15 12:30N 25°47' W 080°11'0 0.0
2017-Oct-15 12:00N 25°47' W 080°11'0 0.0
2017-Oct-15 11:27N 25°47' W 080°11'0 0.0
2017-Oct-15 10:58N 25°47' W 080°11'0 0.0
2017-Oct-15 10:21N 25°47' W 080°11'0 0.0
2017-Oct-15 10:00N 25°47' W 080°11'0 0.0
2017-Oct-15 09:27N 25°47' W 080°11'0 0.0
2017-Oct-15 08:57N 25°47' W 080°11'0 0.0
2017-Oct-15 08:27N 25°47' W 080°11'0 0.0
2017-Oct-15 07:57N 25°47' W 080°11'0 0.0
2017-Oct-15 07:30N 25°47' W 080°11'0 0.0
2017-Oct-15 07:00N 25°47' W 080°11'0 0.0
2017-Oct-15 06:30N 25°47' W 080°11'0 0.0
2017-Oct-15 06:00N 25°47' W 080°11'0 0.0
2017-Oct-15 05:27N 25°47' W 080°11'0 0.0
2017-Oct-15 05:00N 25°47' W 080°11'0 0.0
2017-Oct-15 04:30N 25°47' W 080°11'0 0.0
2017-Oct-15 04:00N 25°47' W 080°11'0 0.7
2017-Oct-15 03:30N 25°46' W 080°11'0 0.1
2017-Oct-15 03:00N 25°46' W 080°11'0 0.8
2017-Oct-15 02:29N 25°47' W 080°11'0 0.8
2017-Oct-15 02:00N 25°47' W 080°11'1 1.7
2017-Oct-15 01:30N 25°46' W 080°10'1 1.7
2017-Oct-15 00:59N 25°47' W 080°11'0 0.2
2017-Oct-15 00:30N 25°47' W 080°11'2 4.4
2017-Oct-15 00:00N 25°46' W 080°09'1 2.2
2017-Oct-14 23:30N 25°47' W 080°10'1 2.8
2017-Oct-14 22:59N 25°47' W 080°11'0 0.0
2017-Oct-14 22:29N 25°47' W 080°11'0 0.0
2017-Oct-14 22:00N 25°47' W 080°11'2 4.9
2017-Oct-14 21:30N 25°46' W 080°09'1 2.5
2017-Oct-14 21:00N 25°47' W 080°09'2 2.9
2017-Oct-14 20:28N 25°47' W 080°11'0 0.0
2017-Oct-14 20:00N 25°47' W 080°11'2 5.0
2017-Oct-14 19:30N 25°46' W 080°09'1 2.1
2017-Oct-14 19:00N 25°47' W 080°09'2 3.3
2017-Oct-14 18:28N 25°47' W 080°11'0 0.0
2017-Oct-14 17:58N 25°47' W 080°11'1 3.3
2017-Oct-14 17:30N 25°46' W 080°10'1 1.4
2017-Oct-14 17:00N 25°47' W 080°09'2 3.2
2017-Oct-14 16:29N 25°47' W 080°11'0 0.6
2017-Oct-14 15:59N 25°47' W 080°11'1 2.8
2017-Oct-14 15:30N 25°47' W 080°09'1 2.5
2017-Oct-14 15:00N 25°46' W 080°09'2 4.1
2017-Oct-14 14:28N 25°47' W 080°11'0 0.0
2017-Oct-14 13:58N 25°47' W 080°11'0 0.0
2017-Oct-14 13:28N 25°47' W 080°11'0 0.0
2017-Oct-14 12:58N 25°47' W 080°11'0 0.0
2017-Oct-14 12:28N 25°47' W 080°11'0 0.0
2017-Oct-14 11:55N 25°47' W 080°11'0 0.0
2017-Oct-14 11:28N 25°47' W 080°11'0 0.0
2017-Oct-14 10:58N 25°47' W 080°11'0 0.0
2017-Oct-14 10:28N 25°47' W 080°11'0 0.0
2017-Oct-14 09:58N 25°47' W 080°11'0 0.0
2017-Oct-14 09:28N 25°47' W 080°11'0 0.0
2017-Oct-14 08:58N 25°47' W 080°11'0 0.0
2017-Oct-14 08:28N 25°47' W 080°11'0 0.0
2017-Oct-14 07:58N 25°47' W 080°11'0 0.0
2017-Oct-14 07:25N 25°47' W 080°11'0 0.0
2017-Oct-14 06:58N 25°47' W 080°11'0 0.0
2017-Oct-14 06:28N 25°47' W 080°11'0 0.0
2017-Oct-14 05:58N 25°47' W 080°11'0 0.0
2017-Oct-14 05:28N 25°47' W 080°11'0 0.0
2017-Oct-14 04:58N 25°47' W 080°11'0 0.0
2017-Oct-14 04:28N 25°47' W 080°11'0 0.0
2017-Oct-14 03:58N 25°47' W 080°11'0 0.0
2017-Oct-14 03:28N 25°47' W 080°11'0 0.0
2017-Oct-14 02:55N 25°47' W 080°11'0 0.7
2017-Oct-14 02:30N 25°46' W 080°11'3 5.1
2017-Oct-14 02:00N 25°44' W 080°11'2 4.8
2017-Oct-14 01:30N 25°46' W 080°11'0 0.8
2017-Oct-14 00:59N 25°47' W 080°11'0 0.2
2017-Oct-14 00:30N 25°47' W 080°11'1 2.8
2017-Oct-14 00:00N 25°47' W 080°10'1 2.8
2017-Oct-13 23:30N 25°46' W 080°08'3 5.2
2017-Oct-13 23:00N 25°47' W 080°11'0 0.0
2017-Oct-13 22:30N 25°47' W 080°11'0 0.3
2017-Oct-13 22:00N 25°47' W 080°11'1 2.6
2017-Oct-13 21:30N 25°47' W 080°10'1 2.2
2017-Oct-13 21:00N 25°46' W 080°09'2 4.3
2017-Oct-13 20:30N 25°47' W 080°11'0 0.0
2017-Oct-13 20:00N 25°47' W 080°11'2 4.8
2017-Oct-13 19:30N 25°46' W 080°09'1 2.3
2017-Oct-13 19:00N 25°47' W 080°09'2 3.2
2017-Oct-13 18:30N 25°47' W 080°11'0 0.0
2017-Oct-13 18:00N 25°47' W 080°11'2 4.5
2017-Oct-13 17:30N 25°46' W 080°09'1 2.0
2017-Oct-13 17:00N 25°47' W 080°09'2 3.0
2017-Oct-13 16:27N 25°47' W 080°11'0 0.0
2017-Oct-13 16:00N 25°47' W 080°11'2 4.7
2017-Oct-13 15:30N 25°46' W 080°09'1 2.2
2017-Oct-13 15:00N 25°47' W 080°09'2 2.8
2017-Oct-13 14:23N 25°47' W 080°11'0 0.0
2017-Oct-13 13:59N 25°47' W 080°11'0 0.0
2017-Oct-13 13:29N 25°47' W 080°11'0 0.0
2017-Oct-13 12:59N 25°47' W 080°11'0 0.0
2017-Oct-13 12:26N 25°47' W 080°11'0 0.0
2017-Oct-13 11:56N 25°47' W 080°11'0 0.0
2017-Oct-13 11:29N 25°47' W 080°11'0 0.0
2017-Oct-13 10:59N 25°47' W 080°11'0 0.0
2017-Oct-13 10:29N 25°47' W 080°11'0 0.0
2017-Oct-13 09:59N 25°47' W 080°11'0 0.0
2017-Oct-13 09:29N 25°47' W 080°11'0 0.0
2017-Oct-13 08:56N 25°47' W 080°11'0 0.0
2017-Oct-13 08:26N 25°47' W 080°11'0 0.0
2017-Oct-13 07:59N 25°47' W 080°11'0 0.0
2017-Oct-13 07:14N 25°47' W 080°11'0 0.0
2017-Oct-13 06:59N 25°47' W 080°11'0 0.0
2017-Oct-13 06:29N 25°47' W 080°11'0 0.0
2017-Oct-13 05:59N 25°47' W 080°11'0 0.0
2017-Oct-13 05:29N 25°47' W 080°11'0 0.0
2017-Oct-13 04:56N 25°47' W 080°11'0 0.0
2017-Oct-13 04:26N 25°47' W 080°11'0 0.0
2017-Oct-13 03:56N 25°47' W 080°11'0 0.0
2017-Oct-13 03:29N 25°47' W 080°11'0 0.0
2017-Oct-13 02:59N 25°47' W 080°11'0 0.0
2017-Oct-13 02:29N 25°47' W 080°11'0 0.0
2017-Oct-13 01:56N 25°47' W 080°11'0 0.0
2017-Oct-13 01:23N 25°47' W 080°11'0 0.0
2017-Oct-13 00:59N 25°47' W 080°11'0 0.0
2017-Oct-13 00:29N 25°47' W 080°11'0 0.0
2017-Oct-12 23:59N 25°47' W 080°11'0 0.0
2017-Oct-12 23:29N 25°47' W 080°11'3 5.3
2017-Oct-12 23:00N 25°46' W 080°08'1 2.5
2017-Oct-12 22:30N 25°47' W 080°09'2 3.2
2017-Oct-12 21:58N 25°47' W 080°11'0 0.0
2017-Oct-12 21:30N 25°47' W 080°11'2 5.0
2017-Oct-12 21:00N 25°46' W 080°09'1 2.5
2017-Oct-12 20:30N 25°47' W 080°10'1 2.6
2017-Oct-12 19:55N 25°47' W 080°11'0 0.4
2017-Oct-12 19:30N 25°47' W 080°11'2 3.1
2017-Oct-12 19:00N 25°47' W 080°09'1 1.6
2017-Oct-12 18:30N 25°46' W 080°10'1 2.6
2017-Oct-12 17:59N 25°47' W 080°11'0 0.0
2017-Oct-12 17:30N 25°47' W 080°11'2 4.4
2017-Oct-12 17:00N 25°46' W 080°09'1 2.2
2017-Oct-12 16:30N 25°47' W 080°10'1 2.3
2017-Oct-12 15:52N 25°47' W 080°11'0 0.0
2017-Oct-12 15:28N 25°47' W 080°11'0 0.4
2017-Oct-12 15:00N 25°47' W 080°11'2 3.8
2017-Oct-12 14:30N 25°47' W 080°09'1 2.8
2017-Oct-12 14:00N 25°47' W 080°10'1 2.0
2017-Oct-12 13:30N 25°47' W 080°11'0 0.0
2017-Oct-12 12:57N 25°47' W 080°11'0 0.0
2017-Oct-12 12:18N 25°47' W 080°11'0 0.0
2017-Oct-12 11:42N 25°47' W 080°11'0 0.0
2017-Oct-12 11:30N 25°47' W 080°11'0 0.0
2017-Oct-12 11:00N 25°47' W 080°11'0 0.0
2017-Oct-12 10:27N 25°47' W 080°11'0 0.0
2017-Oct-12 10:00N 25°47' W 080°11'0 0.0
2017-Oct-12 09:30N 25°47' W 080°11'0 0.0
2017-Oct-12 08:51N 25°47' W 080°11'0 0.0
2017-Oct-12 08:27N 25°47' W 080°11'0 0.0
2017-Oct-12 08:00N 25°47' W 080°11'0 0.0
2017-Oct-12 07:18N 25°47' W 080°11'0 0.0
2017-Oct-12 07:00N 25°47' W 080°11'0 0.0
2017-Oct-12 06:27N 25°47' W 080°11'0 0.0
2017-Oct-12 06:00N 25°47' W 080°11'0 0.0
2017-Oct-12 05:27N 25°47' W 080°11'0 0.0
2017-Oct-12 05:00N 25°47' W 080°11'0 0.0
2017-Oct-12 04:27N 25°47' W 080°11'0 0.0
2017-Oct-12 03:57N 25°47' W 080°11'0 0.0
2017-Oct-12 03:30N 25°47' W 080°11'0 0.0
2017-Oct-12 03:00N 25°47' W 080°11'0 0.0
2017-Oct-12 02:24N 25°47' W 080°11'0 0.0
2017-Oct-12 02:00N 25°47' W 080°11'0 0.0
2017-Oct-12 01:30N 25°47' W 080°11'0 0.0
2017-Oct-12 01:00N 25°47' W 080°11'0 0.0
2017-Oct-12 00:24N 25°47' W 080°11'0 0.0
2017-Oct-11 23:54N 25°47' W 080°11'0 0.0
2017-Oct-11 23:30N 25°47' W 080°11'2 4.3
2017-Oct-11 22:57N 25°46' W 080°09'1 2.6
2017-Oct-11 22:30N 25°47' W 080°09'2 3.1
2017-Oct-11 21:58N 25°47' W 080°11'0 0.0
2017-Oct-11 21:30N 25°47' W 080°11'2 4.9
2017-Oct-11 20:59N 25°46' W 080°09'1 2.6
2017-Oct-11 20:30N 25°47' W 080°09'2 2.5
2017-Oct-11 19:49N 25°47' W 080°11'0 0.0
2017-Oct-11 19:30N 25°47' W 080°11'2 4.8
2017-Oct-11 19:00N 25°46' W 080°09'1 2.5
2017-Oct-11 18:30N 25°47' W 080°09'2 3.2
2017-Oct-11 18:00N 25°47' W 080°11'0 0.0
2017-Oct-11 17:30N 25°47' W 080°11'2 4.8
2017-Oct-11 17:00N 25°46' W 080°09'2 0.1
2017-Oct-10 23:58N 25°47' W 080°11'0 0.0
2017-Oct-10 23:30N 25°47' W 080°11'2 4.9
2017-Oct-10 23:00N 25°46' W 080°09'2 4.0
2017-Oct-10 22:30N 25°47' W 080°10'1 1.9
2017-Oct-10 21:58N 25°47' W 080°11'0 0.0
2017-Oct-10 21:30N 25°47' W 080°11'2 4.4
2017-Oct-10 20:58N 25°46' W 080°09'1 2.2
2017-Oct-10 20:30N 25°47' W 080°09'2 3.3
2017-Oct-10 19:59N 25°47' W 080°11'0 0.0
2017-Oct-10 19:29N 25°47' W 080°11'2 5.0
2017-Oct-10 19:00N 25°46' W 080°09'1 2.4
2017-Oct-10 18:30N 25°47' W 080°09'2 3.1
2017-Oct-10 17:58N 25°47' W 080°11'0 0.0
2017-Oct-10 17:30N 25°47' W 080°11'2 4.8
2017-Oct-10 17:00N 25°46' W 080°09'1 2.3
2017-Oct-10 16:30N 25°47' W 080°09'2 3.1
2017-Oct-10 15:58N 25°47' W 080°11'0 0.0
2017-Oct-10 15:22N 25°47' W 080°11'0 0.0
2017-Oct-10 14:55N 25°47' W 080°11'0 0.0
2017-Oct-10 13:58N 25°47' W 080°11'0 0.0
2017-Oct-10 13:28N 25°47' W 080°11'0 0.0
2017-Oct-10 12:55N 25°47' W 080°11'0 0.0
2017-Oct-10 12:25N 25°47' W 080°11'0 0.0
2017-Oct-10 12:00N 25°47' W 080°11'0 0.0
2017-Oct-10 11:29N 25°47' W 080°11'0 0.0
2017-Oct-10 10:59N 25°47' W 080°11'0 0.0
2017-Oct-10 10:26N 25°47' W 080°11'0 0.0
2017-Oct-10 09:59N 25°47' W 080°11'0 0.0
2017-Oct-10 09:29N 25°47' W 080°11'0 0.0
2017-Oct-10 08:59N 25°47' W 080°11'0 0.0
2017-Oct-10 08:29N 25°47' W 080°11'0 0.0
2017-Oct-10 07:56N 25°47' W 080°11'0 0.0
2017-Oct-10 07:29N 25°47' W 080°11'0 0.0
2017-Oct-10 06:59N 25°47' W 080°11'0 0.0
2017-Oct-10 06:29N 25°47' W 080°11'0 0.0
2017-Oct-10 05:44N 25°47' W 080°11'0 0.0
2017-Oct-10 05:29N 25°47' W 080°11'0 0.0
2017-Oct-10 04:56N 25°47' W 080°11'0 0.0
2017-Oct-10 04:29N 25°47' W 080°11'0 0.0
2017-Oct-10 03:59N 25°47' W 080°11'0 0.0
2017-Oct-10 03:23N 25°47' W 080°11'0 0.0
2017-Oct-10 02:59N 25°47' W 080°11'0 0.0
2017-Oct-10 02:29N 25°47' W 080°11'0 0.0
2017-Oct-10 01:59N 25°47' W 080°11'0 0.0
2017-Oct-10 01:26N 25°47' W 080°11'0 0.0
2017-Oct-10 00:59N 25°47' W 080°11'  
Track history (hours):
 
Tides and Currents Weather Stations Pressure Air Temp Water Temp Dewpoint Dewpoint Depression Visibility Wind Speed Wind Dir Waves Ship Positions

Island Queen

Owner: Island Queen Sightseeing Tours Inc., Miami, FL. More information available from US FCC via Universal Licensing System and Coast Guard Vessel Documentation Center.

Last reported at 2017-Oct-20 00:49 UTC. Time now 2017-Oct-20 03:25 UTC.
Position N 25°47' W 080°11'.

Type: Passenger vessel. MMSI: 367387350.

Date/timePositionNaut miles runAvg speedWind from/ knotsBaromVisibWave heightAir tempDewpointWater temp
2017-Oct-20 00:49N 25°47' W 080°11'1 3.5
2017-Oct-20 00:30N 25°46' W 080°10'1 1.8
2017-Oct-20 00:00N 25°47' W 080°09'2 2.5
2017-Oct-19 23:17N 25°47' W 080°11'2 5.4
2017-Oct-19 22:58N 25°46' W 080°09'1 2.2
2017-Oct-19 22:27N 25°47' W 080°09'2 2.5
2017-Oct-19 21:50N 25°47' W 080°11'2 5.9
2017-Oct-19 21:30N 25°46' W 080°09'1 2.4
2017-Oct-19 21:00N 25°47' W 080°09'2 1.7
2017-Oct-19 20:05N 25°47' W 080°11'0 2.3
2017-Oct-19 19:54N 25°46' W 080°11'2 3.6
2017-Oct-19 19:25N 25°47' W 080°09'2 3.6
2017-Oct-19 18:55N 25°47' W 080°11'1 1.3
2017-Oct-19 18:26N 25°47' W 080°11'0 0.0
2017-Oct-19 18:00N 25°47' W 080°11'2 4.2
2017-Oct-19 17:30N 25°46' W 080°09'1 2.0
2017-Oct-19 17:00N 25°47' W 080°09'2 2.6
2017-Oct-19 16:25N 25°47' W 080°11'0 0.4
2017-Oct-19 16:00N 25°47' W 080°11'2 3.8
2017-Oct-19 15:30N 25°47' W 080°09'1 2.3
2017-Oct-19 15:00N 25°47' W 080°10'1 2.2
2017-Oct-19 14:26N 25°47' W 080°11'0 0.0
2017-Oct-19 13:59N 25°47' W 080°11'0 0.0
2017-Oct-19 13:26N 25°47' W 080°11'0 0.0
2017-Oct-19 12:56N 25°47' W 080°11'0 0.0
2017-Oct-19 12:20N 25°47' W 080°11'0 0.0
2017-Oct-19 11:59N 25°47' W 080°11'0 0.0
2017-Oct-19 11:29N 25°47' W 080°11'0 0.0
2017-Oct-19 10:59N 25°47' W 080°11'0 0.0
2017-Oct-19 10:26N 25°47' W 080°11'0 0.0
2017-Oct-19 09:56N 25°47' W 080°11'0 0.0
2017-Oct-19 09:23N 25°47' W 080°11'0 0.0
2017-Oct-19 08:56N 25°47' W 080°11'0 0.0
2017-Oct-19 08:20N 25°47' W 080°11'0 0.0
2017-Oct-19 07:59N 25°47' W 080°11'0 0.0
2017-Oct-19 07:26N 25°47' W 080°11'0 0.0
2017-Oct-19 06:59N 25°47' W 080°11'0 0.0
2017-Oct-19 06:23N 25°47' W 080°11'0 0.0
2017-Oct-19 05:59N 25°47' W 080°11'0 0.0
2017-Oct-19 05:20N 25°47' W 080°11'0 0.0
2017-Oct-19 04:59N 25°47' W 080°11'0 0.0
2017-Oct-19 04:23N 25°47' W 080°11'0 0.0
2017-Oct-19 03:47N 25°47' W 080°11'0 0.0
2017-Oct-19 03:23N 25°47' W 080°11'0 0.0
2017-Oct-19 02:59N 25°47' W 080°11'0 0.0
2017-Oct-19 02:23N 25°47' W 080°11'0 0.0
2017-Oct-19 01:56N 25°47' W 080°11'0 0.0
2017-Oct-19 01:26N 25°47' W 080°11'0 0.0
2017-Oct-19 00:59N 25°47' W 080°11'1 1.7
2017-Oct-19 00:30N 25°47' W 080°11'2 4.0
2017-Oct-19 00:00N 25°46' W 080°09'2 3.8
2017-Oct-18 23:24N 25°47' W 080°11'1 2.6
2017-Oct-18 22:59N 25°46' W 080°10'1 1.8
2017-Oct-18 22:29N 25°47' W 080°09'2 2.6
2017-Oct-18 21:50N 25°47' W 080°11'0 0.5
2017-Oct-18 21:30N 25°47' W 080°11'2 3.8
2017-Oct-18 21:00N 25°47' W 080°09'1 2.5
2017-Oct-18 20:30N 25°47' W 080°10'1 2.1
2017-Oct-18 19:56N 25°47' W 080°11'0 0.0
2017-Oct-18 19:30N 25°47' W 080°11'3 4.7
2017-Oct-18 18:58N 25°46' W 080°08'1 2.8
2017-Oct-18 18:30N 25°47' W 080°09'2 2.9
2017-Oct-18 17:56N 25°47' W 080°11'0 0.0
2017-Oct-18 17:29N 25°47' W 080°11'2 4.9
2017-Oct-18 17:00N 25°46' W 080°09'1 2.6
2017-Oct-18 16:30N 25°47' W 080°09'2 3.2
2017-Oct-18 15:58N 25°47' W 080°11'2 4.0
2017-Oct-18 15:30N 25°46' W 080°09'1 1.8
2017-Oct-18 15:00N 25°47' W 080°10'1 1.3
2017-Oct-18 13:53N 25°47' W 080°11'0 0.0
2017-Oct-18 13:17N 25°47' W 080°11'0 0.0
2017-Oct-18 12:59N 25°47' W 080°11'0 0.0
2017-Oct-18 12:26N 25°47' W 080°11'0 0.0
2017-Oct-18 11:59N 25°47' W 080°11'0 0.0
2017-Oct-18 11:29N 25°47' W 080°11'0 0.0
2017-Oct-18 11:00N 25°47' W 080°11'0 0.0
2017-Oct-18 10:30N 25°47' W 080°11'0 0.0
2017-Oct-18 09:59N 25°47' W 080°11'0 0.0
2017-Oct-18 09:27N 25°47' W 080°11'0 0.0
2017-Oct-18 09:00N 25°47' W 080°11'0 0.0
2017-Oct-18 08:30N 25°47' W 080°11'0 0.0
2017-Oct-18 07:57N 25°47' W 080°11'0 0.0
2017-Oct-18 07:30N 25°47' W 080°11'0 0.0
2017-Oct-18 07:00N 25°47' W 080°11'0 0.0
2017-Oct-18 06:30N 25°47' W 080°11'0 0.0
2017-Oct-18 06:00N 25°47' W 080°11'0 0.0
2017-Oct-18 05:30N 25°47' W 080°11'0 0.0
2017-Oct-18 05:00N 25°47' W 080°11'0 0.0
2017-Oct-18 04:30N 25°47' W 080°11'0 0.0
2017-Oct-18 03:57N 25°47' W 080°11'0 0.0
2017-Oct-18 03:30N 25°47' W 080°11'0 0.0
2017-Oct-18 02:54N 25°47' W 080°11'0 0.0
2017-Oct-18 02:28N 25°47' W 080°11'0 0.0
2017-Oct-18 02:00N 25°47' W 080°11'0 0.0
2017-Oct-18 01:30N 25°47' W 080°11'0 0.0
2017-Oct-18 01:00N 25°47' W 080°11'1 1.2
2017-Oct-18 00:30N 25°46' W 080°11'1 2.7
2017-Oct-18 00:00N 25°47' W 080°09'2 3.3
2017-Oct-17 23:28N 25°47' W 080°11'1 1.5
2017-Oct-17 23:00N 25°46' W 080°11'1 2.6
2017-Oct-17 22:30N 25°47' W 080°09'2 3.5
2017-Oct-17 22:00N 25°47' W 080°11'0 0.0
2017-Oct-17 21:30N 25°47' W 080°11'2 4.9
2017-Oct-17 21:00N 25°46' W 080°09'1 2.3
2017-Oct-17 20:30N 25°47' W 080°09'2 3.0
2017-Oct-17 19:59N 25°47' W 080°11'0 0.0
2017-Oct-17 19:29N 25°47' W 080°11'2 4.3
2017-Oct-17 19:00N 25°46' W 080°09'1 2.1
2017-Oct-17 18:30N 25°47' W 080°10'1 2.9
2017-Oct-17 18:00N 25°47' W 080°11'0 0.0
2017-Oct-17 17:30N 25°47' W 080°11'2 4.6
2017-Oct-17 17:00N 25°46' W 080°09'1 2.9
2017-Oct-17 16:30N 25°47' W 080°10'1 2.6
2017-Oct-17 16:00N 25°47' W 080°11'2 4.6
2017-Oct-17 15:30N 25°46' W 080°09'1 2.7
2017-Oct-17 15:00N 25°47' W 080°09'2 2.6
2017-Oct-17 14:23N 25°47' W 080°11'0 0.0
2017-Oct-17 13:47N 25°47' W 080°11'0 0.0
2017-Oct-17 13:29N 25°47' W 080°11'0 0.0
2017-Oct-17 12:59N 25°47' W 080°11'0 0.3
2017-Oct-17 12:30N 25°47' W 080°11'0 0.3
2017-Oct-17 11:58N 25°47' W 080°11'0 0.0
2017-Oct-17 11:25N 25°47' W 080°11'0 0.0
2017-Oct-17 10:58N 25°47' W 080°11'0 0.0
2017-Oct-17 10:28N 25°47' W 080°11'0 0.0
2017-Oct-17 10:00N 25°47' W 080°11'0 0.0
2017-Oct-17 09:29N 25°47' W 080°11'0 0.0
2017-Oct-17 08:56N 25°47' W 080°11'0 0.0
2017-Oct-17 08:29N 25°47' W 080°11'0 0.0
2017-Oct-17 07:59N 25°47' W 080°11'0 0.0
2017-Oct-17 07:26N 25°47' W 080°11'0 0.0
2017-Oct-17 06:56N 25°47' W 080°11'0 0.0
2017-Oct-17 06:20N 25°47' W 080°11'0 0.0
2017-Oct-17 05:56N 25°47' W 080°11'0 0.0
2017-Oct-17 05:29N 25°47' W 080°11'0 0.0
2017-Oct-17 04:56N 25°47' W 080°11'0 0.0
2017-Oct-17 04:29N 25°47' W 080°11'0 0.0
2017-Oct-17 03:53N 25°47' W 080°11'0 0.0
2017-Oct-17 03:14N 25°47' W 080°11'0 0.0
2017-Oct-17 02:59N 25°47' W 080°11'0 0.0
2017-Oct-17 02:29N 25°47' W 080°11'0 0.0
2017-Oct-17 01:59N 25°47' W 080°11'0 0.0
2017-Oct-17 01:26N 25°47' W 080°11'0 0.0
2017-Oct-17 00:53N 25°47' W 080°11'0 0.0
2017-Oct-17 00:29N 25°47' W 080°11'0 0.0
2017-Oct-16 23:50N 25°47' W 080°11'0 0.0
2017-Oct-16 23:29N 25°47' W 080°11'2 3.4
2017-Oct-16 23:00N 25°47' W 080°09'1 1.9
2017-Oct-16 22:30N 25°46' W 080°09'2 4.1
2017-Oct-16 21:59N 25°47' W 080°11'0 0.0
2017-Oct-16 21:30N 25°47' W 080°11'2 4.8
2017-Oct-16 21:00N 25°46' W 080°09'1 2.2
2017-Oct-16 20:30N 25°47' W 080°09'2 2.9
2017-Oct-16 19:59N 25°47' W 080°11'0 0.0
2017-Oct-16 19:30N 25°47' W 080°11'2 4.9
2017-Oct-16 19:00N 25°46' W 080°09'1 2.3
2017-Oct-16 18:30N 25°47' W 080°09'2 3.4
2017-Oct-16 18:00N 25°47' W 080°11'0 0.0
2017-Oct-16 17:30N 25°47' W 080°11'2 4.8
2017-Oct-16 17:00N 25°46' W 080°09'1 2.4
2017-Oct-16 16:30N 25°47' W 080°09'2 3.3
2017-Oct-16 15:59N 25°47' W 080°11'0 0.0
2017-Oct-16 15:29N 25°47' W 080°11'0 0.0
2017-Oct-16 14:59N 25°47' W 080°11'0 0.0
2017-Oct-16 14:00N 25°47' W 080°11'0 0.0
2017-Oct-16 13:29N 25°47' W 080°11'0 0.0
2017-Oct-16 13:00N 25°47' W 080°11'0 0.0
2017-Oct-16 12:30N 25°47' W 080°11'0 0.0
2017-Oct-16 12:00N 25°47' W 080°11'0 0.0
2017-Oct-16 11:27N 25°47' W 080°11'0 0.0
2017-Oct-16 11:00N 25°47' W 080°11'0 0.0
2017-Oct-16 10:29N 25°47' W 080°11'0 0.0
2017-Oct-16 09:51N 25°47' W 080°11'0 0.0
2017-Oct-16 09:23N 25°47' W 080°11'0 0.0
2017-Oct-16 08:59N 25°47' W 080°11'0 0.0
2017-Oct-16 08:29N 25°47' W 080°11'0 0.0
2017-Oct-16 07:59N 25°47' W 080°11'0 0.0
2017-Oct-16 07:29N 25°47' W 080°11'0 0.0
2017-Oct-16 07:00N 25°47' W 080°11'0 0.0
2017-Oct-16 06:28N 25°47' W 080°11'0 0.0
2017-Oct-16 05:58N 25°47' W 080°11'0 0.0
2017-Oct-16 05:26N 25°47' W 080°11'0 0.0
2017-Oct-16 04:58N 25°47' W 080°11'0 0.0
2017-Oct-16 04:28N 25°47' W 080°11'0 0.0
2017-Oct-16 03:56N 25°47' W 080°11'0 0.0
2017-Oct-16 03:22N 25°47' W 080°11'0 0.0
2017-Oct-16 02:56N 25°47' W 080°11'0 0.0
2017-Oct-16 02:30N 25°47' W 080°11'1 2.2
2017-Oct-16 02:00N 25°47' W 080°10'1 1.3
2017-Oct-16 01:30N 25°46' W 080°11'1 1.2
2017-Oct-16 01:00N 25°47' W 080°11'0 0.0
2017-Oct-16 00:30N 25°47' W 080°11'2 3.5
2017-Oct-16 00:00N 25°47' W 080°09'1 1.5
2017-Oct-15 23:30N 25°46' W 080°10'1 2.7
2017-Oct-15 22:58N 25°47' W 080°11'0 0.7
2017-Oct-15 22:30N 25°47' W 080°11'1 2.9
2017-Oct-15 22:00N 25°47' W 080°09'1 1.6
2017-Oct-15 21:30N 25°46' W 080°10'2 3.3
2017-Oct-15 21:00N 25°47' W 080°11'0 0.0
2017-Oct-15 20:30N 25°47' W 080°11'2 4.6
2017-Oct-15 20:00N 25°46' W 080°09'1 1.8
2017-Oct-15 19:30N 25°47' W 080°09'2 3.0
2017-Oct-15 18:59N 25°47' W 080°11'0 0.0
2017-Oct-15 18:30N 25°47' W 080°11'1 3.0
2017-Oct-15 18:00N 25°47' W 080°10'1 2.0
2017-Oct-15 17:30N 25°46' W 080°09'2 3.9
2017-Oct-15 17:00N 25°47' W 080°11'0 0.0
2017-Oct-15 16:30N 25°47' W 080°11'2 4.4
2017-Oct-15 16:00N 25°46' W 080°09'1 1.9
2017-Oct-15 15:30N 25°47' W 080°09'2 3.0
2017-Oct-15 14:58N 25°47' W 080°11'0 0.0
2017-Oct-15 13:57N 25°47' W 080°11'0 0.0
2017-Oct-15 13:28N 25°47' W 080°11'0 0.0
2017-Oct-15 12:58N 25°47' W 080°11'0 0.0
2017-Oct-15 12:30N 25°47' W 080°11'0 0.0
2017-Oct-15 12:00N 25°47' W 080°11'0 0.0
2017-Oct-15 11:27N 25°47' W 080°11'0 0.0
2017-Oct-15 10:58N 25°47' W 080°11'0 0.0
2017-Oct-15 10:21N 25°47' W 080°11'0 0.0
2017-Oct-15 10:00N 25°47' W 080°11'0 0.0
2017-Oct-15 09:27N 25°47' W 080°11'0 0.0
2017-Oct-15 08:57N 25°47' W 080°11'0 0.0
2017-Oct-15 08:27N 25°47' W 080°11'0 0.0
2017-Oct-15 07:57N 25°47' W 080°11'0 0.0
2017-Oct-15 07:30N 25°47' W 080°11'0 0.0
2017-Oct-15 07:00N 25°47' W 080°11'0 0.0
2017-Oct-15 06:30N 25°47' W 080°11'0 0.0
2017-Oct-15 06:00N 25°47' W 080°11'0 0.0
2017-Oct-15 05:27N 25°47' W 080°11'0 0.0
2017-Oct-15 05:00N 25°47' W 080°11'0 0.0
2017-Oct-15 04:30N 25°47' W 080°11'0 0.0
2017-Oct-15 04:00N 25°47' W 080°11'0 0.7
2017-Oct-15 03:30N 25°46' W 080°11'0 0.1
2017-Oct-15 03:00N 25°46' W 080°11'0 0.8
2017-Oct-15 02:29N 25°47' W 080°11'0 0.8
2017-Oct-15 02:00N 25°47' W 080°11'1 1.7
2017-Oct-15 01:30N 25°46' W 080°10'1 1.7
2017-Oct-15 00:59N 25°47' W 080°11'0 0.2
2017-Oct-15 00:30N 25°47' W 080°11'2 4.4
2017-Oct-15 00:00N 25°46' W 080°09'1 2.2
2017-Oct-14 23:30N 25°47' W 080°10'1 2.8
2017-Oct-14 22:59N 25°47' W 080°11'0 0.0
2017-Oct-14 22:29N 25°47' W 080°11'0 0.0
2017-Oct-14 22:00N 25°47' W 080°11'2 4.9
2017-Oct-14 21:30N 25°46' W 080°09'1 2.5
2017-Oct-14 21:00N 25°47' W 080°09'2 2.9
2017-Oct-14 20:28N 25°47' W 080°11'0 0.0
2017-Oct-14 20:00N 25°47' W 080°11'2 5.0
2017-Oct-14 19:30N 25°46' W 080°09'1 2.1
2017-Oct-14 19:00N 25°47' W 080°09'2 3.3
2017-Oct-14 18:28N 25°47' W 080°11'0 0.0
2017-Oct-14 17:58N 25°47' W 080°11'1 3.3
2017-Oct-14 17:30N 25°46' W 080°10'1 1.4
2017-Oct-14 17:00N 25°47' W 080°09'2 3.2
2017-Oct-14 16:29N 25°47' W 080°11'0 0.6
2017-Oct-14 15:59N 25°47' W 080°11'1 2.8
2017-Oct-14 15:30N 25°47' W 080°09'1 2.5
2017-Oct-14 15:00N 25°46' W 080°09'2 4.1
2017-Oct-14 14:28N 25°47' W 080°11'0 0.0
2017-Oct-14 13:58N 25°47' W 080°11'0 0.0
2017-Oct-14 13:28N 25°47' W 080°11'0 0.0
2017-Oct-14 12:58N 25°47' W 080°11'0 0.0
2017-Oct-14 12:28N 25°47' W 080°11'0 0.0
2017-Oct-14 11:55N 25°47' W 080°11'0 0.0
2017-Oct-14 11:28N 25°47' W 080°11'0 0.0
2017-Oct-14 10:58N 25°47' W 080°11'0 0.0
2017-Oct-14 10:28N 25°47' W 080°11'0 0.0
2017-Oct-14 09:58N 25°47' W 080°11'0 0.0
2017-Oct-14 09:28N 25°47' W 080°11'0 0.0
2017-Oct-14 08:58N 25°47' W 080°11'0 0.0
2017-Oct-14 08:28N 25°47' W 080°11'0 0.0
2017-Oct-14 07:58N 25°47' W 080°11'0 0.0
2017-Oct-14 07:25N 25°47' W 080°11'0 0.0
2017-Oct-14 06:58N 25°47' W 080°11'0 0.0
2017-Oct-14 06:28N 25°47' W 080°11'0 0.0
2017-Oct-14 05:58N 25°47' W 080°11'0 0.0
2017-Oct-14 05:28N 25°47' W 080°11'0 0.0
2017-Oct-14 04:58N 25°47' W 080°11'0 0.0
2017-Oct-14 04:28N 25°47' W 080°11'0 0.0
2017-Oct-14 03:58N 25°47' W 080°11'0 0.0
2017-Oct-14 03:28N 25°47' W 080°11'0 0.0
2017-Oct-14 02:55N 25°47' W 080°11'0 0.7
2017-Oct-14 02:30N 25°46' W 080°11'3 5.1
2017-Oct-14 02:00N 25°44' W 080°11'2 4.8
2017-Oct-14 01:30N 25°46' W 080°11'0 0.8
2017-Oct-14 00:59N 25°47' W 080°11'0 0.2
2017-Oct-14 00:30N 25°47' W 080°11'1 2.8
2017-Oct-14 00:00N 25°47' W 080°10'1 2.8
2017-Oct-13 23:30N 25°46' W 080°08'3 5.2
2017-Oct-13 23:00N 25°47' W 080°11'0 0.0
2017-Oct-13 22:30N 25°47' W 080°11'0 0.3
2017-Oct-13 22:00N 25°47' W 080°11'1 2.6
2017-Oct-13 21:30N 25°47' W 080°10'1 2.2
2017-Oct-13 21:00N 25°46' W 080°09'2 4.3
2017-Oct-13 20:30N 25°47' W 080°11'0 0.0
2017-Oct-13 20:00N 25°47' W 080°11'2 4.8
2017-Oct-13 19:30N 25°46' W 080°09'1 2.3
2017-Oct-13 19:00N 25°47' W 080°09'2 3.2
2017-Oct-13 18:30N 25°47' W 080°11'0 0.0
2017-Oct-13 18:00N 25°47' W 080°11'2 4.5
2017-Oct-13 17:30N 25°46' W 080°09'1 2.0
2017-Oct-13 17:00N 25°47' W 080°09'2 3.0
2017-Oct-13 16:27N 25°47' W 080°11'0 0.0
2017-Oct-13 16:00N 25°47' W 080°11'2 4.7
2017-Oct-13 15:30N 25°46' W 080°09'1 2.2
2017-Oct-13 15:00N 25°47' W 080°09'2 2.8
2017-Oct-13 14:23N 25°47' W 080°11'0 0.0
2017-Oct-13 13:59N 25°47' W 080°11'0 0.0
2017-Oct-13 13:29N 25°47' W 080°11'0 0.0
2017-Oct-13 12:59N 25°47' W 080°11'0 0.0
2017-Oct-13 12:26N 25°47' W 080°11'0 0.0
2017-Oct-13 11:56N 25°47' W 080°11'0 0.0
2017-Oct-13 11:29N 25°47' W 080°11'0 0.0
2017-Oct-13 10:59N 25°47' W 080°11'0 0.0
2017-Oct-13 10:29N 25°47' W 080°11'0 0.0
2017-Oct-13 09:59N 25°47' W 080°11'0 0.0
2017-Oct-13 09:29N 25°47' W 080°11'0 0.0
2017-Oct-13 08:56N 25°47' W 080°11'0 0.0
2017-Oct-13 08:26N 25°47' W 080°11'0 0.0
2017-Oct-13 07:59N 25°47' W 080°11'0 0.0
2017-Oct-13 07:14N 25°47' W 080°11'0 0.0
2017-Oct-13 06:59N 25°47' W 080°11'0 0.0
2017-Oct-13 06:29N 25°47' W 080°11'0 0.0
2017-Oct-13 05:59N 25°47' W 080°11'0 0.0
2017-Oct-13 05:29N 25°47' W 080°11'0 0.0
2017-Oct-13 04:56N 25°47' W 080°11'0 0.0
2017-Oct-13 04:26N 25°47' W 080°11'0 0.0
2017-Oct-13 03:56N 25°47' W 080°11'0 0.0
2017-Oct-13 03:29N 25°47' W 080°11'0 0.0
2017-Oct-13 02:59N 25°47' W 080°11'0 0.0
2017-Oct-13 02:29N 25°47' W 080°11'0 0.0
2017-Oct-13 01:56N 25°47' W 080°11'0 0.0
2017-Oct-13 01:23N 25°47' W 080°11'0 0.0
2017-Oct-13 00:59N 25°47' W 080°11'0 0.0
2017-Oct-13 00:29N 25°47' W 080°11'0 0.0
2017-Oct-12 23:59N 25°47' W 080°11'0 0.0
2017-Oct-12 23:29N 25°47' W 080°11'3 5.3
2017-Oct-12 23:00N 25°46' W 080°08'1 2.5
2017-Oct-12 22:30N 25°47' W 080°09'2 3.2
2017-Oct-12 21:58N 25°47' W 080°11'0 0.0
2017-Oct-12 21:30N 25°47' W 080°11'2 5.0
2017-Oct-12 21:00N 25°46' W 080°09'1 2.5
2017-Oct-12 20:30N 25°47' W 080°10'1 2.6
2017-Oct-12 19:55N 25°47' W 080°11'0 0.4
2017-Oct-12 19:30N 25°47' W 080°11'2 3.1
2017-Oct-12 19:00N 25°47' W 080°09'1 1.6
2017-Oct-12 18:30N 25°46' W 080°10'1 2.6
2017-Oct-12 17:59N 25°47' W 080°11'0 0.0
2017-Oct-12 17:30N 25°47' W 080°11'2 4.4
2017-Oct-12 17:00N 25°46' W 080°09'1 2.2
2017-Oct-12 16:30N 25°47' W 080°10'1 2.3
2017-Oct-12 15:52N 25°47' W 080°11'0 0.0
2017-Oct-12 15:28N 25°47' W 080°11'0 0.4
2017-Oct-12 15:00N 25°47' W 080°11'2 3.8
2017-Oct-12 14:30N 25°47' W 080°09'1 2.8
2017-Oct-12 14:00N 25°47' W 080°10'1 2.0
2017-Oct-12 13:30N 25°47' W 080°11'0 0.0
2017-Oct-12 12:57N 25°47' W 080°11'0 0.0
2017-Oct-12 12:18N 25°47' W 080°11'0 0.0
2017-Oct-12 11:42N 25°47' W 080°11'0 0.0
2017-Oct-12 11:30N 25°47' W 080°11'0 0.0
2017-Oct-12 11:00N 25°47' W 080°11'0 0.0
2017-Oct-12 10:27N 25°47' W 080°11'0 0.0
2017-Oct-12 10:00N 25°47' W 080°11'0 0.0
2017-Oct-12 09:30N 25°47' W 080°11'0 0.0
2017-Oct-12 08:51N 25°47' W 080°11'0 0.0
2017-Oct-12 08:27N 25°47' W 080°11'0 0.0
2017-Oct-12 08:00N 25°47' W 080°11'0 0.0
2017-Oct-12 07:18N 25°47' W 080°11'0 0.0
2017-Oct-12 07:00N 25°47' W 080°11'0 0.0
2017-Oct-12 06:27N 25°47' W 080°11'0 0.0
2017-Oct-12 06:00N 25°47' W 080°11'0 0.0
2017-Oct-12 05:27N 25°47' W 080°11'0 0.0
2017-Oct-12 05:00N 25°47' W 080°11'0 0.0
2017-Oct-12 04:27N 25°47' W 080°11'0 0.0
2017-Oct-12 03:57N 25°47' W 080°11'0 0.0
2017-Oct-12 03:30N 25°47' W 080°11'0 0.0
2017-Oct-12 03:00N 25°47' W 080°11'0 0.0
2017-Oct-12 02:24N 25°47' W 080°11'0 0.0
2017-Oct-12 02:00N 25°47' W 080°11'0 0.0
2017-Oct-12 01:30N 25°47' W 080°11'0 0.0
2017-Oct-12 01:00N 25°47' W 080°11'0 0.0
2017-Oct-12 00:24N 25°47' W 080°11'0 0.0
2017-Oct-11 23:54N 25°47' W 080°11'0 0.0
2017-Oct-11 23:30N 25°47' W 080°11'2 4.3
2017-Oct-11 22:57N 25°46' W 080°09'1 2.6
2017-Oct-11 22:30N 25°47' W 080°09'2 3.1
2017-Oct-11 21:58N 25°47' W 080°11'0 0.0
2017-Oct-11 21:30N 25°47' W 080°11'2 4.9
2017-Oct-11 20:59N 25°46' W 080°09'1 2.6
2017-Oct-11 20:30N 25°47' W 080°09'2 2.5
2017-Oct-11 19:49N 25°47' W 080°11'0 0.0
2017-Oct-11 19:30N 25°47' W 080°11'2 4.8
2017-Oct-11 19:00N 25°46' W 080°09'1 2.5
2017-Oct-11 18:30N 25°47' W 080°09'2 3.2
2017-Oct-11 18:00N 25°47' W 080°11'0 0.0
2017-Oct-11 17:30N 25°47' W 080°11'2 4.8
2017-Oct-11 17:00N 25°46' W 080°09'2 0.1
2017-Oct-10 23:58N 25°47' W 080°11'0 0.0
2017-Oct-10 23:30N 25°47' W 080°11'2 4.9
2017-Oct-10 23:00N 25°46' W 080°09'2 4.0
2017-Oct-10 22:30N 25°47' W 080°10'1 1.9
2017-Oct-10 21:58N 25°47' W 080°11'0 0.0
2017-Oct-10 21:30N 25°47' W 080°11'2 4.4
2017-Oct-10 20:58N 25°46' W 080°09'1 2.2
2017-Oct-10 20:30N 25°47' W 080°09'2 3.3
2017-Oct-10 19:59N 25°47' W 080°11'0 0.0
2017-Oct-10 19:29N 25°47' W 080°11'2 5.0
2017-Oct-10 19:00N 25°46' W 080°09'1 2.4
2017-Oct-10 18:30N 25°47' W 080°09'2 3.1
2017-Oct-10 17:58N 25°47' W 080°11'0 0.0
2017-Oct-10 17:30N 25°47' W 080°11'2 4.8
2017-Oct-10 17:00N 25°46' W 080°09'1 2.3
2017-Oct-10 16:30N 25°47' W 080°09'2 3.1
2017-Oct-10 15:58N 25°47' W 080°11'0 0.0
2017-Oct-10 15:22N 25°47' W 080°11'0 0.0
2017-Oct-10 14:55N 25°47' W 080°11'0 0.0
2017-Oct-10 13:58N 25°47' W 080°11'0 0.0
2017-Oct-10 13:28N 25°47' W 080°11'0 0.0
2017-Oct-10 12:55N 25°47' W 080°11'0 0.0
2017-Oct-10 12:25N 25°47' W 080°11'0 0.0
2017-Oct-10 12:00N 25°47' W 080°11'0 0.0
2017-Oct-10 11:29N 25°47' W 080°11'0 0.0
2017-Oct-10 10:59N 25°47' W 080°11'0 0.0
2017-Oct-10 10:26N 25°47' W 080°11'0 0.0
2017-Oct-10 09:59N 25°47' W 080°11'0 0.0
2017-Oct-10 09:29N 25°47' W 080°11'0 0.0
2017-Oct-10 08:59N 25°47' W 080°11'0 0.0
2017-Oct-10 08:29N 25°47' W 080°11'0 0.0
2017-Oct-10 07:56N 25°47' W 080°11'0 0.0
2017-Oct-10 07:29N 25°47' W 080°11'0 0.0
2017-Oct-10 06:59N 25°47' W 080°11'0 0.0
2017-Oct-10 06:29N 25°47' W 080°11'0 0.0
2017-Oct-10 05:44N 25°47' W 080°11'0 0.0
2017-Oct-10 05:29N 25°47' W 080°11'0 0.0
2017-Oct-10 04:56N 25°47' W 080°11'0 0.0
2017-Oct-10 04:29N 25°47' W 080°11'0 0.0
2017-Oct-10 03:59N 25°47' W 080°11'0 0.0
2017-Oct-10 03:23N 25°47' W 080°11'0 0.0
2017-Oct-10 02:59N 25°47' W 080°11'0 0.0
2017-Oct-10 02:29N 25°47' W 080°11'0 0.0
2017-Oct-10 01:59N 25°47' W 080°11'0 0.0
2017-Oct-10 01:26N 25°47' W 080°11'0 0.0
2017-Oct-10 00:59N 25°47' W 080°11'  

Dump ship's entire track history